Terminal Aerodrome Forecast
Issued by NWS

Home | Current Version | Previous Version | Text Only | Print | Product List | Glossary On
Versions: 1 2 3 4 5 6 7 8 9 10 11 12 13 14 15 16 17 18
000
FTUS43 KTOP 280520
TAFMHK
TAF
KMHK 280520Z 2806/2906 18007KT P6SM SCT250
     FM281500 20013G20KT P6SM SCT060 BKN200
     FM290000 21008KT P6SM VCTS BKN050CB
     FM290200 33006KT P6SM -SHRA VCTS BKN050CB
      TEMPO 2903/2906 5SM -TSRA BKN040CB=

USA.gov is the U.S. government's official web portal to all federal, state and local government web resources and services.